createdAt,value
2018-11-29T00:00:47.977Z,2.15
2018-11-29T00:01:55.043Z,2.15
2018-11-29T00:03:00.160Z,2.16
2018-11-29T00:04:06.181Z,2.15
2018-11-29T00:05:12.253Z,2.15
2018-11-29T00:06:18.833Z,2.14
2018-11-29T00:07:24.419Z,2.15
2018-11-29T00:08:30.476Z,2.13
2018-11-29T00:09:36.568Z,2.14
2018-11-29T00:10:42.627Z,2.14
2018-11-29T00:11:48.689Z,2.13
2018-11-29T00:12:54.766Z,2.13
2018-11-29T00:14:01.329Z,2.13
2018-11-29T00:15:07.372Z,2.13
2018-11-29T00:16:12.986Z,2.13
2018-11-29T00:17:20.166Z,2.13
2018-11-29T00:18:25.128Z,2.12
2018-11-29T00:19:31.202Z,2.13
2018-11-29T00:20:37.277Z,2.12
2018-11-29T00:21:43.344Z,2.13
2018-11-29T00:22:49.425Z,2.12
2018-11-29T00:23:55.982Z,2.12
2018-11-29T00:25:01.561Z,2.13
2018-11-29T00:26:07.625Z,2.12
2018-11-29T00:27:13.706Z,2.12
2018-11-29T00:28:19.788Z,2.12
2018-11-29T00:29:26.335Z,2.12
2018-11-29T00:30:32.415Z,2.12
2018-11-29T00:31:37.999Z,2.13
2018-11-29T00:32:44.574Z,2.12
2018-11-29T00:33:50.627Z,2.11
2018-11-29T00:34:56.215Z,2.11
2018-11-29T00:36:02.284Z,2.12
2018-11-29T00:37:08.352Z,2.11
2018-11-29T00:38:14.933Z,2.12
2018-11-29T00:39:21.009Z,2.11
2018-11-29T00:40:26.577Z,2.11
2018-11-29T00:41:32.642Z,2.11
2018-11-29T00:42:38.713Z,2.11
2018-11-29T00:43:45.297Z,2.12
2018-11-29T00:44:50.877Z,2.11
2018-11-29T00:45:57.431Z,2.12
2018-11-29T00:47:03.017Z,2.12
2018-11-29T00:48:09.574Z,2.11
2018-11-29T00:49:15.157Z,2.11
2018-11-29T00:50:21.709Z,2.11
2018-11-29T00:51:27.299Z,2.12
2018-11-29T00:52:33.859Z,2.12
2018-11-29T00:53:39.451Z,2.11
2018-11-29T00:54:45.502Z,2.12
2018-11-29T00:55:51.587Z,2.12
2018-11-29T00:56:57.673Z,2.12
2018-11-29T00:58:04.203Z,2.12
2018-11-29T00:59:09.800Z,2.12
2018-11-29T01:00:15.872Z,2.13
2018-11-29T01:01:21.932Z,2.12
2018-11-29T01:02:27.998Z,2.13
2018-11-29T01:03:34.074Z,2.14
2018-11-29T01:04:40.148Z,2.13
2018-11-29T01:05:46.211Z,2.13
2018-11-29T01:06:52.279Z,2.15
2018-11-29T01:07:58.349Z,2.14
2018-11-29T01:09:04.450Z,2.15
2018-11-29T01:10:10.999Z,2.15
2018-11-29T01:11:16.575Z,2.14
2018-11-29T01:12:23.139Z,2.16
2018-11-29T01:13:29.210Z,2.16
2018-11-29T01:14:34.789Z,2.15
2018-11-29T01:15:41.360Z,2.14
2018-11-29T01:16:47.434Z,2.15
2018-11-29T01:17:53.001Z,2.15
2018-11-29T01:18:59.586Z,2.15
2018-11-29T01:20:05.161Z,2.15
2018-11-29T01:21:11.225Z,2.15
2018-11-29T01:22:17.294Z,2.15
2018-11-29T01:23:23.373Z,2.14
2018-11-29T01:24:29.457Z,2.14
2018-11-29T01:25:36.013Z,2.14
2018-11-29T01:26:41.583Z,2.15
2018-11-29T01:27:47.660Z,2.15
2018-11-29T01:28:53.726Z,2.15
2018-11-29T01:29:59.814Z,2.15
2018-11-29T01:31:05.866Z,2.15
2018-11-29T01:32:11.949Z,2.15
2018-11-29T01:33:18.019Z,2.14
2018-11-29T01:34:24.093Z,2.15
2018-11-29T01:35:30.163Z,2.15
2018-11-29T01:36:36.227Z,2.17
2018-11-29T01:37:42.303Z,2.16
2018-11-29T01:38:48.863Z,2.16
2018-11-29T01:39:54.459Z,2.16
2018-11-29T01:41:00.515Z,2.16
2018-11-29T01:42:07.075Z,2.16
2018-11-29T01:43:12.668Z,2.15
2018-11-29T01:44:18.731Z,2.15
2018-11-29T01:45:24.804Z,2.16
2018-11-29T01:46:31.356Z,2.16
2018-11-29T01:47:37.444Z,2.15
2018-11-29T01:48:43.020Z,2.16
2018-11-29T01:49:49.090Z,2.14
2018-11-29T01:50:55.650Z,2.15
2018-11-29T01:52:01.227Z,2.16
2018-11-29T01:53:07.309Z,2.16
2018-11-29T01:54:13.380Z,2.14
2018-11-29T01:55:19.467Z,2.15
2018-11-29T01:56:26.013Z,2.15
2018-11-29T01:57:31.584Z,2.15
2018-11-29T01:58:38.162Z,2.16
2018-11-29T01:59:43.731Z,2.16
2018-11-29T02:00:49.803Z,2.15
2018-11-29T02:01:56.360Z,2.15
2018-11-29T02:03:01.950Z,2.16
2018-11-29T02:04:08.021Z,2.16
2018-11-29T02:05:14.587Z,2.15
2018-11-29T02:06:20.654Z,2.16
2018-11-29T02:07:26.733Z,2.15
2018-11-29T02:08:32.307Z,2.16
2018-11-29T02:09:38.400Z,2.16
2018-11-29T02:10:44.950Z,2.16
2018-11-29T02:11:51.005Z,2.16
2018-11-29T02:12:56.596Z,2.16
2018-11-29T02:14:03.671Z,2.16
2018-11-29T02:15:08.749Z,2.16
2018-11-29T02:16:15.310Z,2.18
2018-11-29T02:17:20.881Z,2.16
2018-11-29T02:18:26.959Z,2.15
2018-11-29T02:19:33.012Z,2.16
2018-11-29T02:20:39.088Z,2.16
2018-11-29T02:21:45.164Z,2.16
2018-11-29T02:22:51.241Z,2.16
2018-11-29T02:23:57.294Z,2.15
2018-11-29T02:25:03.372Z,2.15
2018-11-29T02:26:09.948Z,2.15
2018-11-29T02:27:15.510Z,2.14
2018-11-29T02:28:21.583Z,2.13
2018-11-29T02:29:28.147Z,2.13
2018-11-29T02:30:34.220Z,2.14
2018-11-29T02:31:40.302Z,2.14
2018-11-29T02:32:45.903Z,2.14
2018-11-29T02:33:51.942Z,2.14
2018-11-29T02:34:58.500Z,2.14
2018-11-29T02:36:04.571Z,2.14
2018-11-29T02:37:10.167Z,2.15
2018-11-29T02:38:16.721Z,2.15
2018-11-29T02:39:23.301Z,2.16
2018-11-29T02:40:28.371Z,2.15
2018-11-29T02:41:34.955Z,2.15
2018-11-29T02:42:41.024Z,2.16
2018-11-29T02:43:46.598Z,2.15
2018-11-29T02:44:52.683Z,2.15
2018-11-29T02:45:58.738Z,2.15
2018-11-29T02:47:05.305Z,2.16
2018-11-29T02:48:11.383Z,2.16
2018-11-29T02:49:16.958Z,2.15
2018-11-29T02:50:23.574Z,2.15
2018-11-29T02:51:29.109Z,2.16
2018-11-29T02:52:35.690Z,2.15
2018-11-29T02:53:41.256Z,2.15
2018-11-29T02:54:47.323Z,2.15
2018-11-29T02:55:53.903Z,2.15
2018-11-29T02:56:59.982Z,2.15
2018-11-29T02:58:05.539Z,2.15
2018-11-29T02:59:11.618Z,2.14
2018-11-29T03:00:18.176Z,2.15
2018-11-29T03:01:24.259Z,2.16
2018-11-29T03:02:29.843Z,2.17
2018-11-29T03:03:35.928Z,2.16
2018-11-29T03:04:42.468Z,2.16
2018-11-29T03:05:48.063Z,2.15
2018-11-29T03:06:54.119Z,2.16
2018-11-29T03:08:00.209Z,2.15
2018-11-29T03:09:06.778Z,2.15
2018-11-29T03:10:12.835Z,2.14
2018-11-29T03:11:18.423Z,2.14
2018-11-29T03:12:25.014Z,2.14
2018-11-29T03:13:30.562Z,2.13
2018-11-29T03:14:37.129Z,2.13
2018-11-29T03:15:43.207Z,2.12
2018-11-29T03:16:49.289Z,2.11
2018-11-29T03:17:54.865Z,2.11
2018-11-29T03:19:00.936Z,2.11
2018-11-29T03:20:07.004Z,2.12
2018-11-29T03:21:13.086Z,2.13
2018-11-29T03:22:19.646Z,2.13
2018-11-29T03:23:25.725Z,2.13
2018-11-29T03:24:31.311Z,2.14
2018-11-29T03:25:37.885Z,2.13
2018-11-29T03:26:43.572Z,2.14
2018-11-29T03:27:50.042Z,2.14
2018-11-29T03:28:55.608Z,2.14
2018-11-29T03:30:02.179Z,2.15
2018-11-29T03:31:07.757Z,2.14
2018-11-29T03:32:13.833Z,2.15
2018-11-29T03:33:19.912Z,2.15
2018-11-29T03:34:26.477Z,2.15
2018-11-29T03:35:32.541Z,2.16
2018-11-29T03:36:38.137Z,2.17
2018-11-29T03:37:44.207Z,2.17
2018-11-29T03:38:50.287Z,2.18
2018-11-29T03:39:56.361Z,2.18
2018-11-29T03:41:02.928Z,2.19
2018-11-29T03:42:08.502Z,2.20
2018-11-29T03:43:14.586Z,2.19
2018-11-29T03:44:21.139Z,2.20
2018-11-29T03:45:26.725Z,2.21
2018-11-29T03:46:32.810Z,2.21
2018-11-29T03:47:39.383Z,2.23
2018-11-29T03:48:44.957Z,2.23
2018-11-29T03:49:51.573Z,2.24
2018-11-29T03:50:57.110Z,2.23
2018-11-29T03:52:03.692Z,2.24
2018-11-29T03:53:09.264Z,2.24
2018-11-29T03:54:15.342Z,2.24
2018-11-29T03:55:22.410Z,2.25
2018-11-29T03:56:27.585Z,2.25
2018-11-29T03:57:33.559Z,2.26
2018-11-29T03:58:39.691Z,2.26
2018-11-29T03:59:45.708Z,2.26
2018-11-29T04:00:52.272Z,2.27
2018-11-29T04:01:57.863Z,2.29
2018-11-29T04:03:03.938Z,2.31
2018-11-29T04:04:10.019Z,2.32
2018-11-29T04:05:16.081Z,2.32
2018-11-29T04:06:22.658Z,2.35
2018-11-29T04:07:28.239Z,2.35
2018-11-29T04:08:34.322Z,2.36
2018-11-29T04:09:40.887Z,2.37
2018-11-29T04:10:46.460Z,2.38
2018-11-29T04:11:52.536Z,2.39
2018-11-29T04:12:58.619Z,2.40
2018-11-29T04:14:04.703Z,2.40
2018-11-29T04:15:11.265Z,2.40
2018-11-29T04:16:18.340Z,2.41
2018-11-29T04:17:22.932Z,2.41
2018-11-29T04:18:29.006Z,2.41
2018-11-29T04:19:35.086Z,2.42
2018-11-29T04:20:41.660Z,2.42
2018-11-29T04:21:47.237Z,2.42
2018-11-29T04:22:53.807Z,2.42
2018-11-29T04:24:00.395Z,2.41
2018-11-29T04:25:05.584Z,2.42
2018-11-29T04:26:11.550Z,2.42
2018-11-29T04:27:18.129Z,2.41
2018-11-29T04:28:23.715Z,2.41
2018-11-29T04:29:29.800Z,2.41
2018-11-29T04:30:36.359Z,2.41
2018-11-29T04:31:41.946Z,2.41
2018-11-29T04:32:48.509Z,2.41
2018-11-29T04:33:54.097Z,2.41
2018-11-29T04:35:00.685Z,2.41
2018-11-29T04:36:06.759Z,2.40
2018-11-29T04:37:12.320Z,2.42
2018-11-29T04:38:18.400Z,2.42
2018-11-29T04:39:24.473Z,2.41
2018-11-29T04:40:31.057Z,2.41
2018-11-29T04:41:36.637Z,2.43
2018-11-29T04:42:43.204Z,2.43
2018-11-29T04:43:49.284Z,2.43
2018-11-29T04:44:55.366Z,2.42
2018-11-29T04:46:00.935Z,2.42
2018-11-29T04:47:07.571Z,2.43
2018-11-29T04:48:13.103Z,2.42
2018-11-29T04:49:19.665Z,2.42
2018-11-29T04:50:25.258Z,2.42
2018-11-29T04:51:31.326Z,2.42
2018-11-29T04:52:37.902Z,2.44
2018-11-29T04:53:43.986Z,2.45
2018-11-29T04:54:49.565Z,2.45
2018-11-29T04:55:55.649Z,2.47
2018-11-29T04:57:02.216Z,2.47
2018-11-29T04:58:08.298Z,2.48
2018-11-29T04:59:13.875Z,2.49
2018-11-29T05:00:19.962Z,2.50
2018-11-29T05:01:26.533Z,2.50
2018-11-29T05:02:32.621Z,2.51
2018-11-29T05:03:38.199Z,2.51
2018-11-29T05:04:44.766Z,2.51
2018-11-29T05:05:50.844Z,2.51
2018-11-29T05:06:57.925Z,2.50
2018-11-29T05:08:02.500Z,2.50
2018-11-29T05:09:08.583Z,2.50
2018-11-29T05:10:14.667Z,2.50
2018-11-29T05:11:20.767Z,2.49
2018-11-29T05:12:26.820Z,2.49
2018-11-29T05:13:33.400Z,2.48
2018-11-29T05:14:38.975Z,2.49
2018-11-29T05:15:46.053Z,2.48
2018-11-29T05:16:51.638Z,2.48
2018-11-29T05:17:57.217Z,2.49
2018-11-29T05:19:03.291Z,2.50
2018-11-29T05:20:09.380Z,2.49
2018-11-29T05:21:15.576Z,2.50
2018-11-29T05:22:21.538Z,2.50
2018-11-29T05:23:27.607Z,2.50
2018-11-29T05:24:33.696Z,2.50
2018-11-29T05:25:39.785Z,2.50
2018-11-29T05:26:45.845Z,2.50
2018-11-29T05:27:51.923Z,2.51
2018-11-29T05:28:58.499Z,2.51
2018-11-29T05:30:04.086Z,2.51
2018-11-29T05:31:10.164Z,2.51
2018-11-29T05:32:16.243Z,2.52
2018-11-29T05:33:22.819Z,2.52
2018-11-29T05:34:28.399Z,2.52
2018-11-29T05:35:34.979Z,2.53
2018-11-29T05:36:42.055Z,2.54
2018-11-29T05:37:46.637Z,2.54
2018-11-29T05:38:52.718Z,2.55
2018-11-29T05:39:58.797Z,2.56
2018-11-29T05:41:05.381Z,2.56
2018-11-29T05:42:10.951Z,2.57
2018-11-29T05:43:17.032Z,2.58
2018-11-29T05:44:23.121Z,2.58
2018-11-29T05:45:29.194Z,2.58
2018-11-29T05:46:35.285Z,2.58
2018-11-29T05:47:41.356Z,2.58
2018-11-29T05:48:47.435Z,2.58
2018-11-29T05:49:53.532Z,2.57
2018-11-29T05:50:59.606Z,2.58
2018-11-29T05:52:06.168Z,2.59
2018-11-29T05:53:11.761Z,2.59
2018-11-29T05:54:18.341Z,2.58
2018-11-29T05:55:23.924Z,2.60
2018-11-29T05:56:30.020Z,2.59
2018-11-29T05:57:36.593Z,2.60
2018-11-29T05:58:42.219Z,2.61
2018-11-29T05:59:48.251Z,2.62
2018-11-29T06:00:54.825Z,2.62
2018-11-29T06:02:00.911Z,2.62
2018-11-29T06:03:06.478Z,2.61
2018-11-29T06:04:13.070Z,2.62
2018-11-29T06:05:19.651Z,2.61
2018-11-29T06:06:24.759Z,2.61
2018-11-29T06:07:30.812Z,2.61
2018-11-29T06:08:36.892Z,2.62
2018-11-29T06:09:42.970Z,2.62
2018-11-29T06:10:49.053Z,2.61
2018-11-29T06:11:55.147Z,2.62
2018-11-29T06:13:01.234Z,2.62
2018-11-29T06:14:07.297Z,2.61
2018-11-29T06:15:13.882Z,2.62
2018-11-29T06:16:19.575Z,2.62
2018-11-29T06:17:26.042Z,2.61
2018-11-29T06:18:31.636Z,2.62
2018-11-29T06:19:38.226Z,2.61
2018-11-29T06:20:44.281Z,2.62
2018-11-29T06:21:50.368Z,2.61
2018-11-29T06:22:55.963Z,2.61
2018-11-29T06:24:02.039Z,2.63
2018-11-29T06:25:08.121Z,2.62
2018-11-29T06:26:14.696Z,2.61
2018-11-29T06:27:20.299Z,2.61
2018-11-29T06:28:26.373Z,2.63
2018-11-29T06:29:32.436Z,2.62
2018-11-29T06:30:39.012Z,2.63
2018-11-29T06:31:44.801Z,2.63
2018-11-29T06:32:50.699Z,2.65
2018-11-29T06:33:57.269Z,2.66
2018-11-29T06:35:02.845Z,2.67
2018-11-29T06:36:09.427Z,2.69
2018-11-29T06:37:15.014Z,2.68
2018-11-29T06:38:21.590Z,2.67
2018-11-29T06:39:27.169Z,2.67
2018-11-29T06:40:33.755Z,2.67
2018-11-29T06:41:39.350Z,2.67
2018-11-29T06:42:45.425Z,2.68
2018-11-29T06:43:51.507Z,2.67
2018-11-29T06:44:58.084Z,2.66
2018-11-29T06:46:04.169Z,2.65
2018-11-29T06:47:09.752Z,2.64
2018-11-29T06:48:15.831Z,2.65
2018-11-29T06:49:21.917Z,2.64
2018-11-29T06:50:28.310Z,2.64
2018-11-29T06:51:34.703Z,2.64
2018-11-29T06:52:40.658Z,2.65
2018-11-29T06:53:46.252Z,2.65
2018-11-29T06:54:52.826Z,2.65
2018-11-29T06:55:58.405Z,2.64
2018-11-29T06:57:04.989Z,2.64
2018-11-29T06:58:10.577Z,2.64
2018-11-29T06:59:17.149Z,2.63
2018-11-29T07:00:22.740Z,2.62
2018-11-29T07:01:29.323Z,2.62
2018-11-29T07:02:34.916Z,2.62
2018-11-29T07:03:40.995Z,2.62
2018-11-29T07:04:47.069Z,2.61
2018-11-29T07:05:53.645Z,2.63
2018-11-29T07:06:59.247Z,2.63
2018-11-29T07:08:05.325Z,2.63
2018-11-29T07:09:11.404Z,2.63
2018-11-29T07:10:17.987Z,2.63
2018-11-29T07:11:24.067Z,2.63
2018-11-29T07:12:29.733Z,2.64
2018-11-29T07:13:35.743Z,2.66
2018-11-29T07:14:42.779Z,2.67
2018-11-29T07:15:47.903Z,2.68
2018-11-29T07:16:54.010Z,2.69
2018-11-29T07:18:00.087Z,2.69
2018-11-29T07:19:06.156Z,2.69
2018-11-29T07:20:12.241Z,2.68
2018-11-29T07:21:18.332Z,2.68
2018-11-29T07:22:24.424Z,2.71
2018-11-29T07:23:31.001Z,2.72
2018-11-29T07:24:36.592Z,2.73
2018-11-29T07:25:43.161Z,2.75
2018-11-29T07:26:48.757Z,2.77
2018-11-29T07:27:54.849Z,2.77
2018-11-29T07:29:00.938Z,2.78
2018-11-29T07:30:07.012Z,2.79
2018-11-29T07:31:13.614Z,2.80
2018-11-29T07:32:19.191Z,2.82
2018-11-29T07:33:25.280Z,2.84
2018-11-29T07:34:31.861Z,2.84
2018-11-29T07:35:37.446Z,2.87
2018-11-29T07:36:44.041Z,2.88
2018-11-29T07:37:49.635Z,2.89
2018-11-29T07:38:55.708Z,2.90
2018-11-29T07:40:02.291Z,2.91
2018-11-29T07:41:08.389Z,2.92
2018-11-29T07:42:13.971Z,2.93
2018-11-29T07:43:21.067Z,2.93
2018-11-29T07:44:26.149Z,2.94
2018-11-29T07:45:32.748Z,2.96
2018-11-29T07:46:38.340Z,2.97
2018-11-29T07:47:44.439Z,2.97
2018-11-29T07:48:50.525Z,2.99
2018-11-29T07:49:56.640Z,3.00
2018-11-29T07:51:03.206Z,3.02
2018-11-29T07:52:08.801Z,3.03
2018-11-29T07:53:16.298Z,3.05
2018-11-29T07:54:20.994Z,3.08
2018-11-29T07:55:27.117Z,3.11
2018-11-29T07:56:33.207Z,3.13
2018-11-29T07:57:39.771Z,3.15
2018-11-29T07:58:45.382Z,3.18
2018-11-29T07:59:51.955Z,3.20
2018-11-29T08:00:57.559Z,3.23
2018-11-29T08:02:03.651Z,3.25
2018-11-29T08:03:09.765Z,3.27
2018-11-29T08:04:15.846Z,3.29
2018-11-29T08:05:22.452Z,3.28
2018-11-29T08:06:28.544Z,3.27
2018-11-29T08:07:34.659Z,3.25
2018-11-29T08:08:40.758Z,3.20
2018-11-29T08:09:46.866Z,3.17
2018-11-29T08:10:52.475Z,3.12
2018-11-29T08:11:58.588Z,3.06
2018-11-29T08:13:04.685Z,3.03
2018-11-29T08:14:10.797Z,3.02
2018-11-29T08:15:16.896Z,3.00
2018-11-29T08:16:22.989Z,2.98
2018-11-29T08:17:29.630Z,2.95
2018-11-29T08:18:35.706Z,2.95
2018-11-29T08:19:41.297Z,2.94
2018-11-29T08:20:47.396Z,2.97
2018-11-29T08:21:53.520Z,2.99
2018-11-29T08:22:59.602Z,3.00
2018-11-29T08:24:05.713Z,3.01
2018-11-29T08:25:12.296Z,3.03
2018-11-29T08:26:17.914Z,3.05
2018-11-29T08:27:24.497Z,3.05
2018-11-29T08:28:30.133Z,3.05
2018-11-29T08:29:36.220Z,3.04
2018-11-29T08:30:42.320Z,3.03
2018-11-29T08:31:48.420Z,3.05
2018-11-29T08:32:54.546Z,3.08
2018-11-29T08:34:01.124Z,3.10
2018-11-29T08:35:06.739Z,3.11
2018-11-29T08:36:12.847Z,3.12
2018-11-29T08:37:18.936Z,3.12
2018-11-29T08:38:25.570Z,3.11
2018-11-29T08:39:31.146Z,3.10
2018-11-29T08:40:37.250Z,3.09
2018-11-29T08:41:43.345Z,3.10
2018-11-29T08:42:49.952Z,3.09
2018-11-29T08:43:55.577Z,3.09
2018-11-29T08:45:01.659Z,3.09
2018-11-29T08:46:07.775Z,3.10
2018-11-29T08:47:14.175Z,3.11
2018-11-29T08:48:19.978Z,3.11
2018-11-29T08:49:26.084Z,3.14
2018-11-29T08:50:32.188Z,3.19
2018-11-29T08:51:38.781Z,3.24
2018-11-29T08:52:44.394Z,3.29
2018-11-29T08:53:50.816Z,3.32
2018-11-29T08:54:57.118Z,3.36
2018-11-29T08:56:04.427Z,3.39
2018-11-29T08:57:08.843Z,3.43
2018-11-29T08:58:15.449Z,3.50
2018-11-29T08:59:21.051Z,3.55
2018-11-29T09:00:27.173Z,3.62
2018-11-29T09:01:33.278Z,3.69
2018-11-29T09:02:39.393Z,3.76
2018-11-29T09:03:45.511Z,3.83
2018-11-29T09:04:51.623Z,3.93
2018-11-29T09:05:57.739Z,4.00
2018-11-29T09:07:04.337Z,4.02
2018-11-29T09:08:10.459Z,4.07
2018-11-29T09:09:16.581Z,4.10
2018-11-29T09:10:22.208Z,4.14
2018-11-29T09:11:28.805Z,4.19
2018-11-29T09:12:34.458Z,4.21
2018-11-29T09:13:40.567Z,4.19
2018-11-29T09:14:46.677Z,4.11
2018-11-29T09:15:52.811Z,4.05
2018-11-29T09:16:58.918Z,4.03
2018-11-29T09:18:05.572Z,4.05
2018-11-29T09:19:11.162Z,4.09
2018-11-29T09:20:17.293Z,4.16
2018-11-29T09:21:23.912Z,4.23
2018-11-29T09:22:29.932Z,4.33
2018-11-29T09:23:36.161Z,4.45
2018-11-29T09:24:41.796Z,4.59
2018-11-29T09:25:47.926Z,4.74
2018-11-29T09:26:54.537Z,4.88
2018-11-29T09:28:00.688Z,5.03
2018-11-29T09:29:06.316Z,5.16
2018-11-29T09:30:12.459Z,5.27
2018-11-29T09:31:18.583Z,5.35
2018-11-29T09:32:24.730Z,5.40
2018-11-29T09:33:30.863Z,5.45
2018-11-29T09:34:37.006Z,5.46
2018-11-29T09:35:43.168Z,5.52
2018-11-29T09:36:49.306Z,5.60
2018-11-29T09:37:55.945Z,5.69
2018-11-29T09:39:01.594Z,5.72
2018-11-29T09:40:08.240Z,5.76
2018-11-29T09:41:13.915Z,5.88
2018-11-29T09:42:20.071Z,5.94
2018-11-29T09:43:26.229Z,5.98
2018-11-29T09:44:32.376Z,6.06
2018-11-29T09:45:39.591Z,6.14
2018-11-29T09:46:44.703Z,6.14
2018-11-29T09:47:51.361Z,6.19
2018-11-29T09:48:57.037Z,6.18
2018-11-29T09:50:03.202Z,6.19
2018-11-29T09:51:09.386Z,6.13
2018-11-29T09:52:15.543Z,6.03
2018-11-29T09:53:21.714Z,5.89
2018-11-29T09:54:27.881Z,5.84
2018-11-29T09:55:34.579Z,5.81
2018-11-29T09:56:40.236Z,5.75
2018-11-29T09:57:46.398Z,5.70
2018-11-29T09:58:53.747Z,5.75
2018-11-29T09:59:58.736Z,5.77
2018-11-29T10:01:04.897Z,5.76
2018-11-29T10:02:11.061Z,5.78
2018-11-29T10:03:17.230Z,5.75
2018-11-29T10:04:23.411Z,5.78
2018-11-29T10:05:29.578Z,5.78
2018-11-29T10:06:35.748Z,5.74
2018-11-29T10:07:41.923Z,5.65
2018-11-29T10:08:48.074Z,5.68
2018-11-29T10:09:54.251Z,5.72
2018-11-29T10:11:00.423Z,5.72
2018-11-29T10:12:06.585Z,5.69
2018-11-29T10:13:12.773Z,5.64
2018-11-29T10:14:19.420Z,5.61
2018-11-29T10:15:25.598Z,5.65
2018-11-29T10:16:31.278Z,5.62
2018-11-29T10:17:37.439Z,5.65
2018-11-29T10:18:44.087Z,5.69
2018-11-29T10:19:49.772Z,5.62
2018-11-29T10:20:56.432Z,5.70
2018-11-29T10:22:02.128Z,5.77
2018-11-29T10:23:08.285Z,5.85
2018-11-29T10:24:14.956Z,5.89
2018-11-29T10:25:21.136Z,5.91
2018-11-29T10:26:27.303Z,5.94
2018-11-29T10:27:33.570Z,5.99
2018-11-29T10:28:39.650Z,5.97
2018-11-29T10:29:45.342Z,6.01
2018-11-29T10:30:52.015Z,6.02
2018-11-29T10:31:59.252Z,5.99
2018-11-29T10:33:03.875Z,5.97
2018-11-29T10:34:10.049Z,5.91
2018-11-29T10:35:16.726Z,5.87
2018-11-29T10:36:22.918Z,5.80
2018-11-29T10:37:28.593Z,5.66
2018-11-29T10:38:34.761Z,5.58
2018-11-29T10:39:40.941Z,5.54
2018-11-29T10:40:47.629Z,5.53
2018-11-29T10:41:53.301Z,5.53
2018-11-29T10:42:59.577Z,5.59
2018-11-29T10:44:05.642Z,5.67
2018-11-29T10:45:11.823Z,5.70
2018-11-29T10:46:17.998Z,5.64
2018-11-29T10:47:24.171Z,5.62
2018-11-29T10:48:30.339Z,5.60
2018-11-29T10:49:36.520Z,5.61
2018-11-29T10:50:43.199Z,5.61
2018-11-29T10:51:49.369Z,5.59
2018-11-29T10:52:55.536Z,5.65
2018-11-29T10:54:01.211Z,5.57
2018-11-29T10:55:07.387Z,5.50
2018-11-29T10:56:14.576Z,5.47
2018-11-29T10:57:19.752Z,5.52
2018-11-29T10:58:25.903Z,5.54
2018-11-29T10:59:32.067Z,5.56
2018-11-29T11:00:38.235Z,5.53
2018-11-29T11:01:45.905Z,5.48
2018-11-29T11:02:50.590Z,5.47
2018-11-29T11:03:56.754Z,5.46
2018-11-29T11:05:02.916Z,5.37
2018-11-29T11:06:09.100Z,5.38
2018-11-29T11:07:15.255Z,5.40
2018-11-29T11:08:22.418Z,5.42
2018-11-29T11:09:28.087Z,5.47
2018-11-29T11:10:34.245Z,5.47
2018-11-29T11:11:39.934Z,5.50
2018-11-29T11:12:46.576Z,5.45
2018-11-29T11:13:52.254Z,5.44
2018-11-29T11:14:58.419Z,5.37
2018-11-29T11:16:05.083Z,5.34
2018-11-29T11:17:10.758Z,5.29
2018-11-29T11:18:16.909Z,5.24
2018-11-29T11:19:23.061Z,5.23
2018-11-29T11:20:29.229Z,5.22
2018-11-29T11:21:35.397Z,5.22
2018-11-29T11:22:42.060Z,5.19
2018-11-29T11:23:47.718Z,5.17
2018-11-29T11:24:53.884Z,5.15
2018-11-29T11:26:00.027Z,5.16
2018-11-29T11:27:06.196Z,5.19
2018-11-29T11:28:12.349Z,5.24
2018-11-29T11:29:18.993Z,5.19
2018-11-29T11:30:24.681Z,5.21
2018-11-29T11:31:31.290Z,5.23
2018-11-29T11:32:36.979Z,5.22
2018-11-29T11:33:43.129Z,5.21
2018-11-29T11:34:49.279Z,5.19
2018-11-29T11:35:55.440Z,5.23
2018-11-29T11:37:01.600Z,5.27
2018-11-29T11:38:07.758Z,5.29
2018-11-29T11:39:13.907Z,5.32
2018-11-29T11:40:20.086Z,5.32
2018-11-29T11:41:26.716Z,5.36
2018-11-29T11:42:32.401Z,5.42
2018-11-29T11:43:38.547Z,5.50
2018-11-29T11:44:44.706Z,5.60
2018-11-29T11:45:50.865Z,5.67
2018-11-29T11:46:58.288Z,5.77
2018-11-29T11:48:03.747Z,5.87
2018-11-29T11:49:09.346Z,5.90
2018-11-29T11:50:15.511Z,5.93
2018-11-29T11:51:21.678Z,5.94
2018-11-29T11:52:27.862Z,5.95
2018-11-29T11:53:34.016Z,5.88
2018-11-29T11:54:40.198Z,5.84
2018-11-29T11:55:53.366Z,5.82
2018-11-29T11:56:52.529Z,5.85
2018-11-29T11:57:58.720Z,5.85
2018-11-29T11:59:04.873Z,5.84
2018-11-29T12:00:11.061Z,5.84
2018-11-29T12:01:17.222Z,5.83
2018-11-29T12:02:27.345Z,5.81
2018-11-29T12:03:29.573Z,5.82
2018-11-29T12:04:36.752Z,5.91
2018-11-29T12:05:42.417Z,6.00
2018-11-29T12:06:48.087Z,5.95
2018-11-29T12:07:54.264Z,5.99
2018-11-29T12:09:00.443Z,6.06
2018-11-29T12:10:06.609Z,6.12
2018-11-29T12:11:12.787Z,6.12
2018-11-29T12:12:18.961Z,6.09
2018-11-29T12:13:25.151Z,6.07
2018-11-29T12:14:31.320Z,6.05
2018-11-29T12:15:37.489Z,6.13
2018-11-29T12:16:43.672Z,6.19
2018-11-29T12:17:49.856Z,6.17
2018-11-29T12:19:02.112Z,6.11
2018-11-29T12:20:02.202Z,6.05
2018-11-29T12:21:08.381Z,6.05
2018-11-29T12:22:14.559Z,6.07
2018-11-29T12:23:20.745Z,6.02
2018-11-29T12:24:26.914Z,6.06
2018-11-29T12:25:33.095Z,6.11
2018-11-29T12:26:39.272Z,6.09
2018-11-29T12:27:45.577Z,6.12
2018-11-29T12:28:51.631Z,6.14
2018-11-29T12:29:57.814Z,6.12
2018-11-29T12:31:03.986Z,6.03
2018-11-29T12:32:10.662Z,6.02
2018-11-29T12:33:16.346Z,6.00
2018-11-29T12:34:22.523Z,6.02
2018-11-29T12:35:28.702Z,6.07
2018-11-29T12:36:34.873Z,6.13
2018-11-29T12:37:41.043Z,6.16
2018-11-29T12:38:47.226Z,6.18
2018-11-29T12:39:53.401Z,6.11
2018-11-29T12:40:59.576Z,6.08
2018-11-29T12:42:05.750Z,6.01
2018-11-29T12:43:11.924Z,5.93
2018-11-29T12:44:18.097Z,5.89
2018-11-29T12:45:24.271Z,5.89
2018-11-29T12:46:30.441Z,5.89
2018-11-29T12:47:36.617Z,5.87
2018-11-29T12:48:42.800Z,5.86
2018-11-29T12:49:48.956Z,5.83
2018-11-29T12:50:55.436Z,5.77
2018-11-29T12:52:01.303Z,5.78
2018-11-29T12:53:07.972Z,5.78
2018-11-29T12:54:13.656Z,5.80
2018-11-29T12:55:19.829Z,5.82
2018-11-29T12:56:25.999Z,5.84
2018-11-29T12:57:32.159Z,5.86
2018-11-29T12:58:38.339Z,5.83
2018-11-29T12:59:44.511Z,5.82
2018-11-29T13:00:50.673Z,5.83
2018-11-29T13:01:56.850Z,5.86
2018-11-29T13:04:09.186Z,5.80
2018-11-29T13:05:15.370Z,5.77
2018-11-29T13:06:21.527Z,5.72
2018-11-29T13:07:28.201Z,5.69
2018-11-29T13:08:33.879Z,5.68
2018-11-29T13:09:40.037Z,5.68
2018-11-29T13:10:46.207Z,5.66
2018-11-29T13:11:52.377Z,5.62
2018-11-29T13:12:58.553Z,5.59
2018-11-29T13:14:04.761Z,5.56
2018-11-29T13:15:10.975Z,5.52
2018-11-29T13:16:17.042Z,5.50
2018-11-29T13:17:23.218Z,5.50
2018-11-29T13:18:29.387Z,5.51
2018-11-29T13:19:35.542Z,5.53
2018-11-29T13:20:41.698Z,5.54
2018-11-29T13:21:47.873Z,5.54
2018-11-29T13:22:54.038Z,5.55
2018-11-29T13:24:00.517Z,5.55
2018-11-29T13:25:06.352Z,5.51
2018-11-29T13:26:12.514Z,5.48
2018-11-29T13:27:18.674Z,5.41
2018-11-29T13:28:24.855Z,5.40
2018-11-29T13:29:31.600Z,5.39
2018-11-29T13:30:37.697Z,5.36
2018-11-29T13:31:43.339Z,5.34
2018-11-29T13:32:49.492Z,5.35
2018-11-29T13:33:55.652Z,5.36
2018-11-29T13:35:01.810Z,5.38
2018-11-29T13:36:07.963Z,5.37
2018-11-29T13:37:14.534Z,5.36
2018-11-29T13:38:20.282Z,5.33
2018-11-29T13:39:26.453Z,5.33
2018-11-29T13:40:32.607Z,5.33
2018-11-29T13:41:38.770Z,5.32
2018-11-29T13:42:44.993Z,5.30
2018-11-29T13:43:51.088Z,5.28
2018-11-29T13:44:57.252Z,5.25
2018-11-29T13:46:03.395Z,5.23
2018-11-29T13:47:09.572Z,5.22
2018-11-29T13:48:15.717Z,5.22
2018-11-29T13:49:21.872Z,5.20
2018-11-29T13:50:28.027Z,5.18
2018-11-29T13:51:34.173Z,5.18
2018-11-29T13:52:40.326Z,5.20
2018-11-29T13:53:46.580Z,5.20
2018-11-29T13:54:52.642Z,5.18
2018-11-29T13:55:58.778Z,5.17
2018-11-29T13:57:04.934Z,5.13
2018-11-29T13:58:11.085Z,5.10
2018-11-29T13:59:17.234Z,5.04
2018-11-29T14:00:23.438Z,4.98
2018-11-29T14:01:29.534Z,4.94
2018-11-29T14:02:35.698Z,4.89
2018-11-29T14:03:42.337Z,4.85
2018-11-29T14:04:47.987Z,4.82
2018-11-29T14:05:54.934Z,4.79
2018-11-29T14:07:00.281Z,4.79
2018-11-29T14:08:06.425Z,4.75
2018-11-29T14:09:13.582Z,4.73
2018-11-29T14:10:18.727Z,4.71
2018-11-29T14:11:24.858Z,4.70
2018-11-29T14:12:31.006Z,4.68
2018-11-29T14:13:37.153Z,4.65
2018-11-29T14:14:43.490Z,4.63
2018-11-29T14:15:49.474Z,4.62
2018-11-29T14:16:55.573Z,4.61
2018-11-29T14:18:01.710Z,4.56
2018-11-29T14:19:07.856Z,4.53
2018-11-29T14:20:13.994Z,4.50
2018-11-29T14:21:20.134Z,4.47
2018-11-29T14:22:26.276Z,4.44
2018-11-29T14:23:32.411Z,4.43
2018-11-29T14:24:38.536Z,4.42
2018-11-29T14:25:44.678Z,4.41
2018-11-29T14:26:50.808Z,4.38
2018-11-29T14:27:56.965Z,4.35
2018-11-29T14:29:03.071Z,4.33
2018-11-29T14:30:09.217Z,4.33
2018-11-29T14:31:15.341Z,4.32
2018-11-29T14:32:21.578Z,4.30
2018-11-29T14:33:27.631Z,4.29
2018-11-29T14:34:33.728Z,4.29
2018-11-29T14:35:40.348Z,4.31
2018-11-29T14:36:45.981Z,4.30
2018-11-29T14:37:52.115Z,4.30
2018-11-29T14:38:58.739Z,4.28
2018-11-29T14:40:04.373Z,4.27
2018-11-29T14:41:10.512Z,4.28